PWSweather.com
Personal Weather Stations
Station Observations
MENWDWX1
Menstrie, ScotlandGB

MenstrieScotlandGB

Lat: 56.148322, Lon: -3.85483

Elevation: 62

Station Type: Davis Vantage Pro 2

High Low Average
Temperature 59.1°F15.1°C 39.2°F4.0°C 49.8°F9.9°C
Dew Point 48.0°F8.9°C 33.0°F0.6°C 42.0°F5.6°C
Winds 16.1 mph 25.9 kmh Calm Calm 8.0 mph E12.9 kmh E
Wind Gusts 23.0 mph37.0 kmh -- 11.0 mph17.7 kmh
Humidity 80% 66% 75%
Pressure 29.91 in1012.9 mb 29.57 in1001.4 mb -
Precipitation 0.27 in6.9 mm - -
Hour Temp Dew Point Humidity Winds Wind Gusts Pressure Precip Precip Rate Daily Precip Total
12:00 AM 40.4°F4.7°C 34.1°F1.2°C 78% Calm Calm -- 29.91 in1012.9 mb - 0.00 in0.0 mm 0.00 in0.0 mm
12:05 AM 40.3°F4.6°C 34.0°F1.1°C 78% Calm Calm -- 29.91 in1012.9 mb - 0.00 in0.0 mm 0.00 in0.0 mm
12:10 AM 40.1°F4.5°C 33.8°F1.0°C 78% Calm Calm -- 29.91 in1012.9 mb - 0.00 in0.0 mm 0.00 in0.0 mm
12:15 AM 40.0°F4.4°C 33.7°F0.9°C 78% Calm Calm -- 29.91 in1012.9 mb - 0.00 in0.0 mm 0.00 in0.0 mm
12:20 AM 39.9°F4.4°C 33.6°F0.9°C 78% Calm Calm -- 29.91 in1012.9 mb - 0.00 in0.0 mm 0.00 in0.0 mm
12:25 AM 39.8°F4.3°C 33.5°F0.8°C 78% Calm Calm -- 29.91 in1012.9 mb - 0.00 in0.0 mm 0.00 in0.0 mm
12:30 AM 39.7°F4.3°C 33.4°F0.8°C 78% Calm Calm -- 29.91 in1012.9 mb - 0.00 in0.0 mm 0.00 in0.0 mm
12:35 AM 39.5°F4.2°C 33.2°F0.7°C 78% Calm Calm -- 29.90 in1012.5 mb - 0.00 in0.0 mm 0.00 in0.0 mm
12:40 AM 39.5°F4.2°C 33.5°F0.8°C 79% Calm Calm -- 29.90 in1012.5 mb - 0.00 in0.0 mm 0.00 in0.0 mm
12:45 AM 39.4°F4.1°C 33.4°F0.8°C 79% Calm Calm -- 29.90 in1012.5 mb - 0.00 in0.0 mm 0.00 in0.0 mm
12:50 AM 39.3°F4.1°C 33.0°F0.6°C 78% Calm Calm -- 29.90 in1012.5 mb - 0.00 in0.0 mm 0.00 in0.0 mm
12:55 AM 39.2°F4.0°C 33.3°F0.7°C 79% Calm Calm -- 29.90 in1012.5 mb - 0.00 in0.0 mm 0.00 in0.0 mm
01:00 AM 39.3°F4.1°C 33.3°F0.7°C 79% Calm Calm -- 29.89 in1012.2 mb - 0.00 in0.0 mm 0.00 in0.0 mm
01:05 AM 39.5°F4.2°C 33.5°F0.8°C 79% Calm Calm -- 29.89 in1012.2 mb - 0.00 in0.0 mm 0.00 in0.0 mm
01:10 AM 39.9°F4.4°C 33.9°F1.1°C 79% Calm Calm -- 29.89 in1012.2 mb - 0.00 in0.0 mm 0.00 in0.0 mm
01:15 AM 40.1°F4.5°C 34.1°F1.2°C 79% Calm Calm -- 29.89 in1012.2 mb - 0.00 in0.0 mm 0.00 in0.0 mm
01:20 AM 40.2°F4.6°C 34.2°F1.2°C 79% Calm Calm -- 29.89 in1012.2 mb - 0.00 in0.0 mm 0.00 in0.0 mm
01:25 AM 40.3°F4.6°C 34.3°F1.3°C 79% Calm Calm 1.2 mph1.9 kmh 29.89 in1012.2 mb - 0.00 in0.0 mm 0.00 in0.0 mm
01:30 AM 40.3°F4.6°C 34.3°F1.3°C 79% Calm Calm -- 29.89 in1012.2 mb - 0.00 in0.0 mm 0.00 in0.0 mm
01:35 AM 40.1°F4.5°C 34.1°F1.2°C 79% Calm Calm -- 29.89 in1012.2 mb - 0.00 in0.0 mm 0.00 in0.0 mm
01:40 AM 40.0°F4.4°C 34.1°F1.2°C 79% 1.2 mph ENE1.9 kmh ENE 1.2 mph1.9 kmh 29.89 in1012.2 mb - 0.00 in0.0 mm 0.00 in0.0 mm
01:45 AM 40.2°F4.6°C 34.2°F1.2°C 79% 2.3 mph NE3.7 kmh NE 4.6 mph7.4 kmh 29.88 in1011.9 mb - 0.00 in0.0 mm 0.00 in0.0 mm
01:50 AM 40.9°F4.9°C 35.2°F1.8°C 80% 2.3 mph NE3.7 kmh NE 3.5 mph5.6 kmh 29.88 in1011.9 mb - 0.00 in0.0 mm 0.00 in0.0 mm
01:55 AM 41.7°F5.4°C 36.0°F2.2°C 80% 2.3 mph ENE3.7 kmh ENE 3.5 mph5.6 kmh 29.88 in1011.9 mb - 0.00 in0.0 mm 0.00 in0.0 mm
02:00 AM 42.0°F5.6°C 36.0°F2.2°C 79% Calm Calm -- 29.88 in1011.9 mb - 0.00 in0.0 mm 0.00 in0.0 mm
02:05 AM 41.4°F5.2°C 35.4°F1.9°C 79% 1.2 mph ENE1.9 kmh ENE 1.2 mph1.9 kmh 29.87 in1011.5 mb - 0.00 in0.0 mm 0.00 in0.0 mm
02:10 AM 40.7°F4.8°C 34.7°F1.5°C 79% Calm Calm -- 29.87 in1011.5 mb - 0.00 in0.0 mm 0.00 in0.0 mm
02:15 AM 40.3°F4.6°C 34.3°F1.3°C 79% Calm Calm -- 29.87 in1011.5 mb - 0.00 in0.0 mm 0.00 in0.0 mm
02:20 AM 40.1°F4.5°C 34.1°F1.2°C 79% 1.2 mph ENE1.9 kmh ENE 2.3 mph3.7 kmh 29.87 in1011.5 mb - 0.00 in0.0 mm 0.00 in0.0 mm
02:25 AM 40.3°F4.6°C 34.3°F1.3°C 79% Calm Calm 2.3 mph3.7 kmh 29.86 in1011.2 mb - 0.00 in0.0 mm 0.00 in0.0 mm
02:30 AM 40.5°F4.7°C 34.5°F1.4°C 79% Calm Calm -- 29.86 in1011.2 mb - 0.00 in0.0 mm 0.00 in0.0 mm
02:35 AM 40.5°F4.7°C 34.5°F1.4°C 79% Calm Calm -- 29.86 in1011.2 mb - 0.00 in0.0 mm 0.00 in0.0 mm
02:40 AM 40.1°F4.5°C 34.1°F1.2°C 79% Calm Calm -- 29.86 in1011.2 mb - 0.00 in0.0 mm 0.00 in0.0 mm
02:45 AM 39.8°F4.3°C 33.8°F1.0°C 79% Calm Calm -- 29.86 in1011.2 mb - 0.00 in0.0 mm 0.00 in0.0 mm
02:50 AM 39.7°F4.3°C 33.7°F0.9°C 79% Calm Calm -- 29.86 in1011.2 mb - 0.00 in0.0 mm 0.00 in0.0 mm
02:55 AM 39.7°F4.3°C 33.7°F0.9°C 79% Calm Calm -- 29.86 in1011.2 mb - 0.00 in0.0 mm 0.00 in0.0 mm
03:00 AM 39.8°F4.3°C 33.8°F1.0°C 79% Calm Calm -- 29.86 in1011.2 mb - 0.00 in0.0 mm 0.00 in0.0 mm
03:05 AM 39.8°F4.3°C 33.8°F1.0°C 79% Calm Calm -- 29.85 in1010.8 mb - 0.00 in0.0 mm 0.00 in0.0 mm
03:10 AM 39.8°F4.3°C 33.8°F1.0°C 79% Calm Calm -- 29.85 in1010.8 mb - 0.00 in0.0 mm 0.00 in0.0 mm
03:15 AM 40.0°F4.4°C 34.0°F1.1°C 79% Calm Calm -- 29.85 in1010.8 mb - 0.00 in0.0 mm 0.00 in0.0 mm
03:20 AM 40.0°F4.4°C 34.0°F1.1°C 79% Calm Calm -- 29.85 in1010.8 mb - 0.00 in0.0 mm 0.00 in0.0 mm
03:25 AM 40.1°F4.5°C 34.4°F1.3°C 80% Calm Calm -- 29.85 in1010.8 mb - 0.00 in0.0 mm 0.00 in0.0 mm
03:30 AM 40.1°F4.5°C 34.5°F1.4°C 80% Calm Calm -- 29.84 in1010.5 mb - 0.00 in0.0 mm 0.00 in0.0 mm
03:35 AM 40.0°F4.4°C 34.3°F1.3°C 80% Calm Calm -- 29.84 in1010.5 mb - 0.00 in0.0 mm 0.00 in0.0 mm
03:40 AM 39.9°F4.4°C 33.9°F1.1°C 79% Calm Calm -- 29.84 in1010.5 mb - 0.00 in0.0 mm 0.00 in0.0 mm
03:45 AM 39.8°F4.3°C 33.8°F1.0°C 79% Calm Calm -- 29.84 in1010.5 mb - 0.00 in0.0 mm 0.00 in0.0 mm
03:50 AM 39.8°F4.3°C 34.2°F1.2°C 80% Calm Calm -- 29.84 in1010.5 mb - 0.00 in0.0 mm 0.00 in0.0 mm
03:55 AM 40.0°F4.4°C 34.3°F1.3°C 80% 2.3 mph ENE3.7 kmh ENE 3.5 mph5.6 kmh 29.84 in1010.5 mb - 0.00 in0.0 mm 0.00 in0.0 mm
04:00 AM 40.1°F4.5°C 34.4°F1.3°C 80% 2.3 mph ENE3.7 kmh ENE 3.5 mph5.6 kmh 29.84 in1010.5 mb - 0.00 in0.0 mm 0.00 in0.0 mm
04:05 AM 40.3°F4.6°C 34.6°F1.4°C 80% Calm Calm -- 29.84 in1010.5 mb - 0.00 in0.0 mm 0.00 in0.0 mm
04:10 AM 40.6°F4.8°C 34.9°F1.6°C 80% Calm Calm -- 29.83 in1010.2 mb - 0.00 in0.0 mm 0.00 in0.0 mm
04:15 AM 40.9°F4.9°C 35.2°F1.8°C 80% 1.2 mph ENE1.9 kmh ENE 2.3 mph3.7 kmh 29.83 in1010.2 mb - 0.00 in0.0 mm 0.00 in0.0 mm
04:20 AM 41.1°F5.1°C 35.4°F1.9°C 80% Calm Calm -- 29.83 in1010.2 mb - 0.00 in0.0 mm 0.00 in0.0 mm
04:25 AM 41.4°F5.2°C 35.7°F2.1°C 80% Calm Calm -- 29.83 in1010.2 mb - 0.00 in0.0 mm 0.00 in0.0 mm
04:30 AM 41.5°F5.3°C 35.8°F2.1°C 80% Calm Calm -- 29.83 in1010.2 mb - 0.00 in0.0 mm 0.00 in0.0 mm
04:35 AM 41.5°F5.3°C 35.8°F2.1°C 80% Calm Calm -- 29.83 in1010.2 mb - 0.00 in0.0 mm 0.00 in0.0 mm
04:40 AM 41.6°F5.3°C 35.9°F2.2°C 80% Calm Calm -- 29.83 in1010.2 mb - 0.00 in0.0 mm 0.00 in0.0 mm
04:45 AM 41.7°F5.4°C 36.0°F2.2°C 80% Calm Calm 1.2 mph1.9 kmh 29.83 in1010.2 mb - 0.00 in0.0 mm 0.00 in0.0 mm
04:50 AM 41.8°F5.4°C 36.1°F2.3°C 80% Calm Calm -- 29.83 in1010.2 mb - 0.00 in0.0 mm 0.00 in0.0 mm
04:55 AM 41.8°F5.4°C 36.1°F2.3°C 80% 2.3 mph ENE3.7 kmh ENE 3.5 mph5.6 kmh 29.83 in1010.2 mb - 0.00 in0.0 mm 0.00 in0.0 mm
05:00 AM 41.9°F5.5°C 36.2°F2.3°C 80% Calm Calm -- 29.83 in1010.2 mb - 0.00 in0.0 mm 0.00 in0.0 mm
05:05 AM 42.1°F5.6°C 36.4°F2.4°C 80% Calm Calm -- 29.83 in1010.2 mb - 0.00 in0.0 mm 0.00 in0.0 mm
05:10 AM 42.1°F5.6°C 36.4°F2.4°C 80% Calm Calm -- 29.83 in1010.2 mb - 0.00 in0.0 mm 0.00 in0.0 mm
05:15 AM 42.1°F5.6°C 36.4°F2.4°C 80% Calm Calm -- 29.83 in1010.2 mb - 0.00 in0.0 mm 0.00 in0.0 mm
05:20 AM 42.2°F5.7°C 36.5°F2.5°C 80% Calm Calm -- 29.83 in1010.2 mb - 0.00 in0.0 mm 0.00 in0.0 mm
05:25 AM 42.3°F5.7°C 36.6°F2.6°C 80% Calm Calm -- 29.82 in1009.8 mb - 0.00 in0.0 mm 0.00 in0.0 mm
05:30 AM 42.4°F5.8°C 36.7°F2.6°C 80% Calm Calm -- 29.82 in1009.8 mb - 0.00 in0.0 mm 0.00 in0.0 mm
05:35 AM 42.7°F5.9°C 37.0°F2.8°C 80% 1.2 mph ENE1.9 kmh ENE 3.5 mph5.6 kmh 29.82 in1009.8 mb - 0.00 in0.0 mm 0.00 in0.0 mm
05:40 AM 42.9°F6.1°C 37.2°F2.9°C 80% Calm Calm 3.5 mph5.6 kmh 29.82 in1009.8 mb - 0.00 in0.0 mm 0.00 in0.0 mm
05:45 AM 43.2°F6.2°C 37.4°F3.0°C 80% 2.3 mph ENE3.7 kmh ENE 4.6 mph7.4 kmh 29.82 in1009.8 mb - 0.00 in0.0 mm 0.00 in0.0 mm
05:50 AM 43.9°F6.6°C 38.1°F3.4°C 80% 8.1 mph E13.0 kmh E 10.4 mph16.7 kmh 29.82 in1009.8 mb - 0.00 in0.0 mm 0.00 in0.0 mm
05:55 AM 44.8°F7.1°C 38.7°F3.7°C 79% 3.5 mph ENE5.6 kmh ENE 8.1 mph13.0 kmh 29.82 in1009.8 mb - 0.00 in0.0 mm 0.00 in0.0 mm
06:00 AM 45.2°F7.3°C 39.0°F3.9°C 79% 4.6 mph SE7.4 kmh SE 9.2 mph14.8 kmh 29.82 in1009.8 mb - 0.00 in0.0 mm 0.00 in0.0 mm
06:05 AM 45.9°F7.7°C 39.4°F4.1°C 78% 5.8 mph ESE9.3 kmh ESE 10.4 mph16.7 kmh 29.81 in1009.5 mb - 0.00 in0.0 mm 0.00 in0.0 mm
06:10 AM 46.9°F8.3°C 40.0°F4.4°C 77% 6.9 mph E11.1 kmh E 8.1 mph13.0 kmh 29.81 in1009.5 mb - 0.00 in0.0 mm 0.00 in0.0 mm
06:15 AM 47.7°F8.7°C 40.5°F4.7°C 76% 5.8 mph E9.3 kmh E 9.2 mph14.8 kmh 29.81 in1009.5 mb - 0.00 in0.0 mm 0.00 in0.0 mm
06:20 AM 48.3°F9.1°C 41.1°F5.1°C 76% 4.6 mph E7.4 kmh E 10.4 mph16.7 kmh 29.81 in1009.5 mb - 0.00 in0.0 mm 0.00 in0.0 mm
06:25 AM 48.7°F9.3°C 41.5°F5.3°C 76% 6.9 mph E11.1 kmh E 11.5 mph18.5 kmh 29.81 in1009.5 mb - 0.00 in0.0 mm 0.00 in0.0 mm
06:30 AM 49.0°F9.4°C 41.8°F5.4°C 76% 8.1 mph E13.0 kmh E 11.5 mph18.5 kmh 29.81 in1009.5 mb - 0.00 in0.0 mm 0.00 in0.0 mm
06:35 AM 49.1°F9.5°C 41.9°F5.5°C 76% 5.8 mph ESE9.3 kmh ESE 9.2 mph14.8 kmh 29.81 in1009.5 mb - 0.00 in0.0 mm 0.00 in0.0 mm
06:40 AM 49.3°F9.6°C 42.1°F5.6°C 76% 6.9 mph E11.1 kmh E 10.4 mph16.7 kmh 29.80 in1009.1 mb - 0.00 in0.0 mm 0.00 in0.0 mm
06:45 AM 49.6°F9.8°C 42.3°F5.7°C 76% 5.8 mph E9.3 kmh E 10.4 mph16.7 kmh 29.80 in1009.1 mb - 0.00 in0.0 mm 0.00 in0.0 mm
06:50 AM 49.7°F9.8°C 42.4°F5.8°C 76% 8.1 mph E13.0 kmh E 13.8 mph22.2 kmh 29.80 in1009.1 mb - 0.00 in0.0 mm 0.00 in0.0 mm
06:55 AM 49.8°F9.9°C 42.2°F5.7°C 75% 10.4 mph E16.7 kmh E 11.5 mph18.5 kmh 29.80 in1009.1 mb - 0.00 in0.0 mm 0.00 in0.0 mm
07:00 AM 50.0°F10.0°C 42.7°F5.9°C 76% 11.5 mph E18.5 kmh E 15.0 mph24.1 kmh 29.80 in1009.1 mb - 0.00 in0.0 mm 0.00 in0.0 mm
07:05 AM 50.3°F10.2°C 42.7°F5.9°C 75% 9.2 mph E14.8 kmh E 12.7 mph20.4 kmh 29.80 in1009.1 mb - 0.00 in0.0 mm 0.00 in0.0 mm
07:10 AM 50.5°F10.3°C 42.9°F6.1°C 75% 8.1 mph E13.0 kmh E 12.7 mph20.4 kmh 29.80 in1009.1 mb - 0.00 in0.0 mm 0.00 in0.0 mm
07:15 AM 50.8°F10.4°C 43.2°F6.2°C 75% 10.4 mph E16.7 kmh E 13.8 mph22.2 kmh 29.79 in1008.8 mb - 0.00 in0.0 mm 0.00 in0.0 mm
07:20 AM 51.1°F10.6°C 43.4°F6.3°C 75% 12.7 mph E20.4 kmh E 16.1 mph25.9 kmh 29.79 in1008.8 mb - 0.00 in0.0 mm 0.00 in0.0 mm
07:25 AM 51.2°F10.7°C 43.6°F6.4°C 75% 10.4 mph E16.7 kmh E 16.1 mph25.9 kmh 29.79 in1008.8 mb - 0.00 in0.0 mm 0.00 in0.0 mm
07:30 AM 51.5°F10.8°C 43.5°F6.4°C 74% 9.2 mph E14.8 kmh E 11.5 mph18.5 kmh 29.79 in1008.8 mb - 0.00 in0.0 mm 0.00 in0.0 mm
07:35 AM 51.9°F11.1°C 43.9°F6.6°C 74% 8.1 mph ESE13.0 kmh ESE 10.4 mph16.7 kmh 29.78 in1008.5 mb - 0.00 in0.0 mm 0.00 in0.0 mm
07:40 AM 52.2°F11.2°C 44.2°F6.8°C 74% 10.4 mph E16.7 kmh E 12.7 mph20.4 kmh 29.78 in1008.5 mb - 0.00 in0.0 mm 0.00 in0.0 mm
07:45 AM 52.6°F11.4°C 44.2°F6.8°C 73% 6.9 mph E11.1 kmh E 13.8 mph22.2 kmh 29.77 in1008.1 mb - 0.00 in0.0 mm 0.00 in0.0 mm
07:50 AM 52.8°F11.6°C 44.0°F6.7°C 72% 10.4 mph ESE16.7 kmh ESE 15.0 mph24.1 kmh 29.77 in1008.1 mb - 0.00 in0.0 mm 0.00 in0.0 mm
07:55 AM 52.6°F11.4°C 44.2°F6.8°C 73% 9.2 mph E14.8 kmh E 12.7 mph20.4 kmh 29.77 in1008.1 mb - 0.00 in0.0 mm 0.00 in0.0 mm
08:00 AM 52.6°F11.4°C 44.2°F6.8°C 73% 10.4 mph E16.7 kmh E 12.7 mph20.4 kmh 29.77 in1008.1 mb - 0.00 in0.0 mm 0.00 in0.0 mm
08:05 AM 52.7°F11.5°C 44.3°F6.8°C 73% 9.2 mph E14.8 kmh E 13.8 mph22.2 kmh 29.77 in1008.1 mb - 0.00 in0.0 mm 0.00 in0.0 mm
08:10 AM 52.6°F11.4°C 44.2°F6.8°C 73% 9.2 mph E14.8 kmh E 15.0 mph24.1 kmh 29.77 in1008.1 mb - 0.00 in0.0 mm 0.00 in0.0 mm
08:15 AM 52.6°F11.4°C 44.2°F6.8°C 73% 9.2 mph ESE14.8 kmh ESE 10.4 mph16.7 kmh 29.77 in1008.1 mb - 0.00 in0.0 mm 0.00 in0.0 mm
08:20 AM 52.7°F11.5°C 44.3°F6.8°C 73% 9.2 mph E14.8 kmh E 13.8 mph22.2 kmh 29.77 in1008.1 mb - 0.00 in0.0 mm 0.00 in0.0 mm
08:25 AM 53.2°F11.8°C 44.8°F7.1°C 73% 11.5 mph ESE18.5 kmh ESE 16.1 mph25.9 kmh 29.77 in1008.1 mb - 0.00 in0.0 mm 0.00 in0.0 mm
08:30 AM 53.6°F12.0°C 44.8°F7.1°C 72% 10.4 mph E16.7 kmh E 11.5 mph18.5 kmh 29.77 in1008.1 mb - 0.00 in0.0 mm 0.00 in0.0 mm
08:35 AM 53.8°F12.1°C 45.0°F7.2°C 72% 9.2 mph ESE14.8 kmh ESE 12.7 mph20.4 kmh 29.77 in1008.1 mb - 0.00 in0.0 mm 0.00 in0.0 mm
08:40 AM 53.9°F12.2°C 45.1°F7.3°C 72% 9.2 mph ESE14.8 kmh ESE 11.5 mph18.5 kmh 29.77 in1008.1 mb - 0.00 in0.0 mm 0.00 in0.0 mm
08:45 AM 54.0°F12.2°C 45.2°F7.3°C 72% 9.2 mph ESE14.8 kmh ESE 12.7 mph20.4 kmh 29.77 in1008.1 mb - 0.00 in0.0 mm 0.00 in0.0 mm
08:50 AM 54.2°F12.3°C 45.4°F7.4°C 72% 11.5 mph ESE18.5 kmh ESE 15.0 mph24.1 kmh 29.77 in1008.1 mb - 0.00 in0.0 mm 0.00 in0.0 mm
08:55 AM 54.3°F12.4°C 45.5°F7.5°C 72% 10.4 mph ESE16.7 kmh ESE 15.0 mph24.1 kmh 29.76 in1007.8 mb - 0.00 in0.0 mm 0.00 in0.0 mm
09:00 AM 54.3°F12.4°C 45.4°F7.4°C 72% 8.1 mph ESE13.0 kmh ESE 11.5 mph18.5 kmh 29.76 in1007.8 mb - 0.00 in0.0 mm 0.00 in0.0 mm
09:05 AM 54.5°F12.5°C 45.7°F7.6°C 72% 11.5 mph E18.5 kmh E 17.3 mph27.8 kmh 29.76 in1007.8 mb - 0.00 in0.0 mm 0.00 in0.0 mm
09:10 AM 54.7°F12.6°C 45.8°F7.7°C 72% 10.4 mph E16.7 kmh E 18.4 mph29.6 kmh 29.76 in1007.8 mb - 0.00 in0.0 mm 0.00 in0.0 mm
09:15 AM 54.6°F12.6°C 45.8°F7.7°C 72% 11.5 mph ESE18.5 kmh ESE 19.6 mph31.5 kmh 29.76 in1007.8 mb - 0.00 in0.0 mm 0.00 in0.0 mm
09:20 AM 54.8°F12.7°C 46.0°F7.8°C 72% 11.5 mph ESE18.5 kmh ESE 17.3 mph27.8 kmh 29.76 in1007.8 mb - 0.00 in0.0 mm 0.00 in0.0 mm
09:25 AM 55.0°F12.8°C 45.8°F7.7°C 71% 11.5 mph ESE18.5 kmh ESE 19.6 mph31.5 kmh 29.76 in1007.8 mb - 0.00 in0.0 mm 0.00 in0.0 mm
09:30 AM 55.2°F12.9°C 46.0°F7.8°C 71% 10.4 mph E16.7 kmh E 13.8 mph22.2 kmh 29.76 in1007.8 mb - 0.00 in0.0 mm 0.00 in0.0 mm
09:35 AM 55.5°F13.1°C 46.2°F7.9°C 71% 8.1 mph E13.0 kmh E 11.5 mph18.5 kmh 29.76 in1007.8 mb - 0.00 in0.0 mm 0.00 in0.0 mm
09:40 AM 56.0°F13.3°C 46.3°F7.9°C 70% 11.5 mph E18.5 kmh E 12.7 mph20.4 kmh 29.75 in1007.5 mb - 0.00 in0.0 mm 0.00 in0.0 mm
09:45 AM 56.5°F13.6°C 47.2°F8.4°C 71% 12.7 mph E20.4 kmh E 17.3 mph27.8 kmh 29.75 in1007.5 mb - 0.00 in0.0 mm 0.00 in0.0 mm
09:50 AM 56.6°F13.7°C 46.9°F8.3°C 70% 12.7 mph E20.4 kmh E 15.0 mph24.1 kmh 29.75 in1007.5 mb - 0.00 in0.0 mm 0.00 in0.0 mm
09:55 AM 56.2°F13.4°C 46.5°F8.1°C 70% 10.4 mph E16.7 kmh E 13.8 mph22.2 kmh 29.75 in1007.5 mb - 0.00 in0.0 mm 0.00 in0.0 mm
10:00 AM 56.4°F13.6°C 46.7°F8.2°C 70% 9.2 mph E14.8 kmh E 13.8 mph22.2 kmh 29.75 in1007.5 mb - 0.00 in0.0 mm 0.00 in0.0 mm
10:05 AM 56.5°F13.6°C 46.8°F8.2°C 70% 12.7 mph E20.4 kmh E 17.3 mph27.8 kmh 29.75 in1007.5 mb - 0.00 in0.0 mm 0.00 in0.0 mm
10:10 AM 56.4°F13.6°C 46.7°F8.2°C 70% 9.2 mph ESE14.8 kmh ESE 12.7 mph20.4 kmh 29.74 in1007.1 mb - 0.00 in0.0 mm 0.00 in0.0 mm
10:15 AM 56.7°F13.7°C 47.1°F8.4°C 70% 12.7 mph E20.4 kmh E 19.6 mph31.5 kmh 29.74 in1007.1 mb - 0.00 in0.0 mm 0.00 in0.0 mm
10:20 AM 57.2°F14.0°C 47.5°F8.6°C 70% 10.4 mph SE16.7 kmh SE 13.8 mph22.2 kmh 29.74 in1007.1 mb - 0.00 in0.0 mm 0.00 in0.0 mm
10:25 AM 57.1°F13.9°C 47.1°F8.4°C 69% 10.4 mph E16.7 kmh E 15.0 mph24.1 kmh 29.74 in1007.1 mb - 0.00 in0.0 mm 0.00 in0.0 mm
10:30 AM 57.6°F14.2°C 47.9°F8.8°C 70% 11.5 mph E18.5 kmh E 18.4 mph29.6 kmh 29.74 in1007.1 mb - 0.00 in0.0 mm 0.00 in0.0 mm
10:35 AM 57.7°F14.3°C 48.0°F8.9°C 70% 11.5 mph ESE18.5 kmh ESE 12.7 mph20.4 kmh 29.74 in1007.1 mb - 0.00 in0.0 mm 0.00 in0.0 mm
10:40 AM 57.3°F14.1°C 47.6°F8.7°C 70% 12.7 mph E20.4 kmh E 19.6 mph31.5 kmh 29.73 in1006.8 mb - 0.00 in0.0 mm 0.00 in0.0 mm
10:45 AM 57.3°F14.1°C 47.6°F8.7°C 70% 12.7 mph E20.4 kmh E 18.4 mph29.6 kmh 29.73 in1006.8 mb - 0.00 in0.0 mm 0.00 in0.0 mm
10:50 AM 57.2°F14.0°C 47.5°F8.6°C 70% 10.4 mph ESE16.7 kmh ESE 11.5 mph18.5 kmh 29.73 in1006.8 mb - 0.00 in0.0 mm 0.00 in0.0 mm
10:55 AM 57.6°F14.2°C 47.9°F8.8°C 70% 9.2 mph E14.8 kmh E 16.1 mph25.9 kmh 29.73 in1006.8 mb - 0.00 in0.0 mm 0.00 in0.0 mm
11:00 AM 57.7°F14.3°C 48.0°F8.9°C 70% 11.5 mph E18.5 kmh E 19.6 mph31.5 kmh 29.73 in1006.8 mb - 0.00 in0.0 mm 0.00 in0.0 mm
11:05 AM 57.5°F14.2°C 47.4°F8.6°C 69% 12.7 mph E20.4 kmh E 18.4 mph29.6 kmh 29.73 in1006.8 mb - 0.00 in0.0 mm 0.00 in0.0 mm
11:10 AM 57.6°F14.2°C 47.5°F8.6°C 69% 13.8 mph E22.2 kmh E 19.6 mph31.5 kmh 29.73 in1006.8 mb - 0.00 in0.0 mm 0.00 in0.0 mm
11:15 AM 57.5°F14.2°C 47.4°F8.6°C 69% 13.8 mph E22.2 kmh E 18.4 mph29.6 kmh 29.73 in1006.8 mb - 0.00 in0.0 mm 0.00 in0.0 mm
11:20 AM 57.2°F14.0°C 47.1°F8.4°C 69% 9.2 mph E14.8 kmh E 13.8 mph22.2 kmh 29.72 in1006.4 mb - 0.00 in0.0 mm 0.00 in0.0 mm
11:25 AM 57.0°F13.9°C 46.9°F8.3°C 69% 12.7 mph E20.4 kmh E 17.3 mph27.8 kmh 29.72 in1006.4 mb - 0.00 in0.0 mm 0.00 in0.0 mm
11:30 AM 57.1°F13.9°C 47.4°F8.6°C 70% 12.7 mph E20.4 kmh E 15.0 mph24.1 kmh 29.72 in1006.4 mb - 0.00 in0.0 mm 0.00 in0.0 mm
11:35 AM 57.1°F13.9°C 47.8°F8.8°C 71% 10.4 mph E16.7 kmh E 19.6 mph31.5 kmh 29.72 in1006.4 mb - 0.00 in0.0 mm 0.00 in0.0 mm
11:40 AM 56.9°F13.8°C 47.2°F8.4°C 70% 12.7 mph E20.4 kmh E 15.0 mph24.1 kmh 29.71 in1006.1 mb - 0.00 in0.0 mm 0.00 in0.0 mm
11:45 AM 57.1°F13.9°C 47.4°F8.6°C 70% 10.4 mph E16.7 kmh E 18.4 mph29.6 kmh 29.71 in1006.1 mb - 0.00 in0.0 mm 0.00 in0.0 mm
11:50 AM 57.5°F14.2°C 47.4°F8.6°C 69% 10.4 mph E16.7 kmh E 16.1 mph25.9 kmh 29.71 in1006.1 mb - 0.00 in0.0 mm 0.00 in0.0 mm
11:55 AM 57.7°F14.3°C 47.2°F8.4°C 68% 12.7 mph E20.4 kmh E 19.6 mph31.5 kmh 29.71 in1006.1 mb - 0.00 in0.0 mm 0.00 in0.0 mm
12:00 PM 57.9°F14.4°C 47.4°F8.6°C 68% 15.0 mph E24.1 kmh E 18.4 mph29.6 kmh 29.71 in1006.1 mb - 0.00 in0.0 mm 0.00 in0.0 mm
12:05 PM 58.2°F14.6°C 47.7°F8.7°C 68% 12.7 mph E20.4 kmh E 20.7 mph33.3 kmh 29.70 in1005.8 mb - 0.00 in0.0 mm 0.00 in0.0 mm
12:10 PM 58.2°F14.6°C 47.3°F8.5°C 67% 12.7 mph E20.4 kmh E 17.3 mph27.8 kmh 29.70 in1005.8 mb - 0.00 in0.0 mm 0.00 in0.0 mm
12:15 PM 57.9°F14.4°C 47.4°F8.6°C 68% 16.1 mph E25.9 kmh E 23.0 mph37.0 kmh 29.70 in1005.8 mb - 0.00 in0.0 mm 0.00 in0.0 mm
12:20 PM 58.3°F14.6°C 47.7°F8.7°C 68% 12.7 mph ESE20.4 kmh ESE 12.7 mph20.4 kmh 29.70 in1005.8 mb - 0.00 in0.0 mm 0.00 in0.0 mm
12:25 PM 58.8°F14.9°C 47.9°F8.8°C 67% 9.2 mph ESE14.8 kmh ESE 11.5 mph18.5 kmh 29.70 in1005.8 mb - 0.00 in0.0 mm 0.00 in0.0 mm
12:30 PM 59.1°F15.1°C 47.7°F8.7°C 66% 13.8 mph E22.2 kmh E 18.4 mph29.6 kmh 29.70 in1005.8 mb - 0.00 in0.0 mm 0.00 in0.0 mm
12:35 PM 58.8°F14.9°C 47.5°F8.6°C 66% 13.8 mph E22.2 kmh E 18.4 mph29.6 kmh 29.69 in1005.4 mb - 0.00 in0.0 mm 0.00 in0.0 mm
12:40 PM 58.5°F14.7°C 47.5°F8.6°C 67% 15.0 mph E24.1 kmh E 19.6 mph31.5 kmh 29.69 in1005.4 mb - 0.00 in0.0 mm 0.00 in0.0 mm
12:45 PM 58.2°F14.6°C 47.7°F8.7°C 68% 9.2 mph E14.8 kmh E 15.0 mph24.1 kmh 29.69 in1005.4 mb - 0.00 in0.0 mm 0.00 in0.0 mm
12:50 PM 58.3°F14.6°C 47.8°F8.8°C 68% 10.4 mph E16.7 kmh E 15.0 mph24.1 kmh 29.69 in1005.4 mb - 0.00 in0.0 mm 0.00 in0.0 mm
12:55 PM 58.5°F14.7°C 47.5°F8.6°C 67% 15.0 mph E24.1 kmh E 19.6 mph31.5 kmh 29.69 in1005.4 mb - 0.00 in0.0 mm 0.00 in0.0 mm
01:00 PM 58.7°F14.8°C 47.8°F8.8°C 67% 10.4 mph E16.7 kmh E 16.1 mph25.9 kmh 29.68 in1005.1 mb - 0.00 in0.0 mm 0.00 in0.0 mm
01:05 PM 58.8°F14.9°C 47.5°F8.6°C 66% 10.4 mph E16.7 kmh E 13.8 mph22.2 kmh 29.68 in1005.1 mb - 0.00 in0.0 mm 0.00 in0.0 mm
01:10 PM 58.8°F14.9°C 47.8°F8.8°C 67% 15.0 mph E24.1 kmh E 17.3 mph27.8 kmh 29.68 in1005.1 mb - 0.00 in0.0 mm 0.00 in0.0 mm
01:15 PM 58.8°F14.9°C 47.9°F8.8°C 67% 11.5 mph E18.5 kmh E 15.0 mph24.1 kmh 29.68 in1005.1 mb - 0.00 in0.0 mm 0.00 in0.0 mm
01:20 PM 58.8°F14.9°C 47.9°F8.8°C 67% 11.5 mph E18.5 kmh E 15.0 mph24.1 kmh 29.68 in1005.1 mb - 0.00 in0.0 mm 0.00 in0.0 mm
01:25 PM 59.0°F15.0°C 48.0°F8.9°C 67% 13.8 mph E22.2 kmh E 16.1 mph25.9 kmh 29.67 in1004.7 mb - 0.00 in0.0 mm 0.00 in0.0 mm
01:30 PM 58.9°F14.9°C 48.0°F8.9°C 67% 12.7 mph E20.4 kmh E 17.3 mph27.8 kmh 29.67 in1004.7 mb - 0.00 in0.0 mm 0.00 in0.0 mm
01:35 PM 58.7°F14.8°C 47.8°F8.8°C 67% 13.8 mph E22.2 kmh E 17.3 mph27.8 kmh 29.67 in1004.7 mb - 0.00 in0.0 mm 0.00 in0.0 mm
01:40 PM 58.4°F14.7°C 47.1°F8.4°C 66% 13.8 mph E22.2 kmh E 19.6 mph31.5 kmh 29.67 in1004.7 mb - 0.00 in0.0 mm 0.00 in0.0 mm
01:45 PM 58.3°F14.6°C 47.4°F8.6°C 67% 13.8 mph E22.2 kmh E 17.3 mph27.8 kmh 29.67 in1004.7 mb - 0.00 in0.0 mm 0.00 in0.0 mm
01:50 PM 58.4°F14.7°C 47.5°F8.6°C 67% 13.8 mph E22.2 kmh E 18.4 mph29.6 kmh 29.67 in1004.7 mb - 0.00 in0.0 mm 0.00 in0.0 mm
01:55 PM 58.4°F14.7°C 47.5°F8.6°C 67% 11.5 mph E18.5 kmh E 13.8 mph22.2 kmh 29.66 in1004.4 mb - 0.00 in0.0 mm 0.00 in0.0 mm
02:00 PM 58.4°F14.7°C 47.5°F8.6°C 67% 11.5 mph E18.5 kmh E 13.8 mph22.2 kmh 29.66 in1004.4 mb - 0.00 in0.0 mm 0.00 in0.0 mm
02:05 PM 58.3°F14.6°C 47.4°F8.6°C 67% 15.0 mph E24.1 kmh E 19.6 mph31.5 kmh 29.66 in1004.4 mb - 0.00 in0.0 mm 0.00 in0.0 mm
02:10 PM 58.1°F14.5°C 47.6°F8.7°C 68% 12.7 mph E20.4 kmh E 18.4 mph29.6 kmh 29.66 in1004.4 mb - 0.00 in0.0 mm 0.00 in0.0 mm
02:15 PM 58.0°F14.4°C 47.5°F8.6°C 68% 12.7 mph E20.4 kmh E 23.0 mph37.0 kmh 29.66 in1004.4 mb - 0.00 in0.0 mm 0.00 in0.0 mm
02:20 PM 57.7°F14.3°C 47.6°F8.7°C 69% 11.5 mph E18.5 kmh E 13.8 mph22.2 kmh 29.66 in1004.4 mb - 0.00 in0.0 mm 0.00 in0.0 mm
02:25 PM 57.5°F14.2°C 47.4°F8.6°C 69% 11.5 mph E18.5 kmh E 15.0 mph24.1 kmh 29.66 in1004.4 mb - 0.00 in0.0 mm 0.00 in0.0 mm
02:30 PM 57.5°F14.2°C 47.4°F8.6°C 69% 9.2 mph E14.8 kmh E 17.3 mph27.8 kmh 29.66 in1004.4 mb - 0.00 in0.0 mm 0.00 in0.0 mm
02:35 PM 57.5°F14.2°C 47.4°F8.6°C 69% 10.4 mph E16.7 kmh E 12.7 mph20.4 kmh 29.65 in1004.1 mb - 0.00 in0.0 mm 0.00 in0.0 mm
02:40 PM 57.5°F14.2°C 47.4°F8.6°C 69% 11.5 mph E18.5 kmh E 17.3 mph27.8 kmh 29.65 in1004.1 mb - 0.00 in0.0 mm 0.00 in0.0 mm
02:45 PM 57.7°F14.3°C 47.6°F8.7°C 69% 12.7 mph E20.4 kmh E 18.4 mph29.6 kmh 29.65 in1004.1 mb - 0.00 in0.0 mm 0.00 in0.0 mm
02:50 PM 57.9°F14.4°C 47.8°F8.8°C 69% 12.7 mph E20.4 kmh E 17.3 mph27.8 kmh 29.65 in1004.1 mb - 0.00 in0.0 mm 0.00 in0.0 mm
02:55 PM 57.9°F14.4°C 47.4°F8.6°C 68% 11.5 mph E18.5 kmh E 18.4 mph29.6 kmh 29.64 in1003.7 mb - 0.00 in0.0 mm 0.00 in0.0 mm
03:00 PM 58.0°F14.4°C 47.9°F8.8°C 69% 9.2 mph E14.8 kmh E 13.8 mph22.2 kmh 29.64 in1003.7 mb - 0.00 in0.0 mm 0.00 in0.0 mm
03:05 PM 57.8°F14.3°C 47.7°F8.7°C 69% 12.7 mph E20.4 kmh E 16.1 mph25.9 kmh 29.64 in1003.7 mb - 0.00 in0.0 mm 0.00 in0.0 mm
03:10 PM 57.4°F14.1°C 47.3°F8.5°C 69% 11.5 mph E18.5 kmh E 16.1 mph25.9 kmh 29.64 in1003.7 mb - 0.00 in0.0 mm 0.00 in0.0 mm
03:15 PM 57.2°F14.0°C 47.5°F8.6°C 70% 12.7 mph E20.4 kmh E 15.0 mph24.1 kmh 29.64 in1003.7 mb - 0.00 in0.0 mm 0.00 in0.0 mm
03:20 PM 57.1°F13.9°C 47.4°F8.6°C 70% 11.5 mph E18.5 kmh E 15.0 mph24.1 kmh 29.63 in1003.4 mb - 0.00 in0.0 mm 0.00 in0.0 mm
03:25 PM 57.1°F13.9°C 47.4°F8.6°C 70% 12.7 mph E20.4 kmh E 16.1 mph25.9 kmh 29.63 in1003.4 mb - 0.00 in0.0 mm 0.00 in0.0 mm
03:30 PM 57.0°F13.9°C 47.3°F8.5°C 70% 13.8 mph E22.2 kmh E 17.3 mph27.8 kmh 29.63 in1003.4 mb - 0.00 in0.0 mm 0.00 in0.0 mm
03:35 PM 56.7°F13.7°C 47.4°F8.6°C 71% 10.4 mph ESE16.7 kmh ESE 13.8 mph22.2 kmh 29.63 in1003.4 mb - 0.00 in0.0 mm 0.00 in0.0 mm
03:40 PM 56.6°F13.7°C 47.3°F8.5°C 71% 10.4 mph E16.7 kmh E 16.1 mph25.9 kmh 29.63 in1003.4 mb - 0.00 in0.0 mm 0.00 in0.0 mm
03:45 PM 56.7°F13.7°C 47.4°F8.6°C 71% 10.4 mph E16.7 kmh E 13.8 mph22.2 kmh 29.62 in1003.0 mb - 0.00 in0.0 mm 0.00 in0.0 mm
03:50 PM 56.8°F13.8°C 47.5°F8.6°C 71% 10.4 mph E16.7 kmh E 16.1 mph25.9 kmh 29.62 in1003.0 mb - 0.00 in0.0 mm 0.00 in0.0 mm
03:55 PM 57.1°F13.9°C 47.8°F8.8°C 71% 9.2 mph E14.8 kmh E 16.1 mph25.9 kmh 29.62 in1003.0 mb - 0.00 in0.0 mm 0.00 in0.0 mm
04:00 PM 57.3°F14.1°C 48.0°F8.9°C 71% 15.0 mph E24.1 kmh E 19.6 mph31.5 kmh 29.62 in1003.0 mb - 0.00 in0.0 mm 0.00 in0.0 mm
04:05 PM 57.1°F13.9°C 47.4°F8.6°C 70% 11.5 mph E18.5 kmh E 13.8 mph22.2 kmh 29.61 in1002.7 mb - 0.00 in0.0 mm 0.00 in0.0 mm
04:10 PM 57.1°F13.9°C 47.0°F8.3°C 69% 11.5 mph E18.5 kmh E 16.1 mph25.9 kmh 29.61 in1002.7 mb - 0.00 in0.0 mm 0.00 in0.0 mm
04:15 PM 57.0°F13.9°C 47.3°F8.5°C 70% 10.4 mph E16.7 kmh E 17.3 mph27.8 kmh 29.61 in1002.7 mb - 0.00 in0.0 mm 0.00 in0.0 mm
04:20 PM 57.2°F14.0°C 47.5°F8.6°C 70% 11.5 mph ESE18.5 kmh ESE 18.4 mph29.6 kmh 29.61 in1002.7 mb - 0.00 in0.0 mm 0.00 in0.0 mm
04:25 PM 57.3°F14.1°C 47.6°F8.7°C 70% 12.7 mph ESE20.4 kmh ESE 16.1 mph25.9 kmh 29.61 in1002.7 mb - 0.00 in0.0 mm 0.00 in0.0 mm
04:30 PM 57.3°F14.1°C 47.6°F8.7°C 70% 12.7 mph E20.4 kmh E 17.3 mph27.8 kmh 29.61 in1002.7 mb - 0.00 in0.0 mm 0.00 in0.0 mm
04:35 PM 57.1°F13.9°C 47.4°F8.6°C 70% 12.7 mph ESE20.4 kmh ESE 19.6 mph31.5 kmh 29.61 in1002.7 mb - 0.00 in0.0 mm 0.00 in0.0 mm
04:40 PM 56.9°F13.8°C 47.6°F8.7°C 71% 10.4 mph E16.7 kmh E 13.8 mph22.2 kmh 29.61 in1002.7 mb - 0.00 in0.0 mm 0.00 in0.0 mm
04:45 PM 56.4°F13.6°C 47.5°F8.6°C 72% 11.5 mph E18.5 kmh E 18.4 mph29.6 kmh 29.61 in1002.7 mb - 0.00 in0.0 mm 0.00 in0.0 mm
04:50 PM 55.9°F13.3°C 47.4°F8.6°C 73% 11.5 mph E18.5 kmh E 16.1 mph25.9 kmh 29.60 in1002.4 mb - 0.00 in0.0 mm 0.00 in0.0 mm
04:55 PM 55.5°F13.1°C 47.0°F8.3°C 73% 12.7 mph ESE20.4 kmh ESE 19.6 mph31.5 kmh 29.60 in1002.4 mb - 0.00 in0.0 mm 0.00 in0.0 mm
05:00 PM 55.2°F12.9°C 47.1°F8.4°C 74% 10.4 mph E16.7 kmh E 13.8 mph22.2 kmh 29.60 in1002.4 mb - 0.00 in0.0 mm 0.00 in0.0 mm
05:05 PM 55.0°F12.8°C 46.9°F8.3°C 74% 11.5 mph ESE18.5 kmh ESE 16.1 mph25.9 kmh 29.60 in1002.4 mb - 0.00 in0.0 mm 0.00 in0.0 mm
05:10 PM 55.0°F12.8°C 46.8°F8.2°C 74% 11.5 mph E18.5 kmh E 18.4 mph29.6 kmh 29.60 in1002.4 mb - 0.00 in0.0 mm 0.00 in0.0 mm
05:15 PM 54.9°F12.7°C 46.8°F8.2°C 74% 13.8 mph E22.2 kmh E 20.7 mph33.3 kmh 29.60 in1002.4 mb - 0.00 in0.0 mm 0.00 in0.0 mm
05:20 PM 54.8°F12.7°C 46.7°F8.2°C 74% 12.7 mph ESE20.4 kmh ESE 19.6 mph31.5 kmh 29.60 in1002.4 mb - 0.00 in0.0 mm 0.00 in0.0 mm
05:25 PM 54.3°F12.4°C 46.5°F8.1°C 75% 12.7 mph ESE20.4 kmh ESE 19.6 mph31.5 kmh 29.60 in1002.4 mb - 0.00 in0.0 mm 0.00 in0.0 mm
05:30 PM 53.8°F12.1°C 46.0°F7.8°C 75% 11.5 mph E18.5 kmh E 18.4 mph29.6 kmh 29.60 in1002.4 mb - 0.00 in0.0 mm 0.00 in0.0 mm
05:35 PM 53.5°F11.9°C 45.8°F7.7°C 75% 12.7 mph E20.4 kmh E 16.1 mph25.9 kmh 29.59 in1002.0 mb - 0.00 in0.0 mm 0.00 in0.0 mm
05:40 PM 53.3°F11.8°C 45.6°F7.6°C 75% 12.7 mph ESE20.4 kmh ESE 18.4 mph29.6 kmh 29.59 in1002.0 mb - 0.00 in0.0 mm 0.00 in0.0 mm
05:45 PM 53.2°F11.8°C 45.5°F7.5°C 75% 11.5 mph E18.5 kmh E 13.8 mph22.2 kmh 29.59 in1002.0 mb - 0.00 in0.0 mm 0.00 in0.0 mm
05:50 PM 53.2°F11.8°C 45.5°F7.5°C 75% 13.8 mph E22.2 kmh E 17.3 mph27.8 kmh 29.59 in1002.0 mb - 0.00 in0.0 mm 0.00 in0.0 mm
05:55 PM 53.1°F11.7°C 45.4°F7.4°C 75% 16.1 mph E25.9 kmh E 19.6 mph31.5 kmh 29.59 in1002.0 mb - 0.00 in0.0 mm 0.00 in0.0 mm
06:00 PM 53.0°F11.7°C 45.3°F7.4°C 75% 10.4 mph ESE16.7 kmh ESE 15.0 mph24.1 kmh 29.59 in1002.0 mb - 0.00 in0.0 mm 0.00 in0.0 mm
06:05 PM 52.7°F11.5°C 45.0°F7.2°C 75% 10.4 mph ESE16.7 kmh ESE 15.0 mph24.1 kmh 29.60 in1002.4 mb - 0.00 in0.0 mm 0.00 in0.0 mm
06:10 PM 52.0°F11.1°C 44.4°F6.9°C 75% 10.4 mph SSE16.7 kmh SSE 16.1 mph25.9 kmh 29.62 in1003.0 mb - 0.02 in0.5 mm 0.02 in0.5 mm
06:15 PM 50.6°F10.3°C 43.0°F6.1°C 75% 9.2 mph ESE14.8 kmh ESE 12.7 mph20.4 kmh 29.62 in1003.0 mb - 0.02 in0.5 mm 0.03 in0.8 mm
06:20 PM 49.8°F9.9°C 42.2°F5.7°C 75% 11.5 mph ESE18.5 kmh ESE 17.3 mph27.8 kmh 29.62 in1003.0 mb - 0.00 in0.0 mm 0.03 in0.8 mm
06:25 PM 49.4°F9.7°C 42.1°F5.6°C 76% 9.2 mph ESE14.8 kmh ESE 12.7 mph20.4 kmh 29.62 in1003.0 mb - 0.00 in0.0 mm 0.03 in0.8 mm
06:30 PM 49.1°F9.5°C 41.9°F5.5°C 76% 9.2 mph E14.8 kmh E 11.5 mph18.5 kmh 29.62 in1003.0 mb - 0.00 in0.0 mm 0.03 in0.8 mm
06:35 PM 48.9°F9.4°C 41.7°F5.4°C 76% 5.8 mph E9.3 kmh E 8.1 mph13.0 kmh 29.62 in1003.0 mb - 0.00 in0.0 mm 0.03 in0.8 mm
06:40 PM 48.7°F9.3°C 41.5°F5.3°C 76% 8.1 mph ESE13.0 kmh ESE 10.4 mph16.7 kmh 29.62 in1003.0 mb - 0.01 in0.3 mm 0.04 in1.0 mm
06:45 PM 48.6°F9.2°C 41.4°F5.2°C 76% 6.9 mph E11.1 kmh E 6.9 mph11.1 kmh 29.62 in1003.0 mb - 0.02 in0.5 mm 0.07 in1.8 mm
06:50 PM 48.5°F9.2°C 41.3°F5.2°C 76% 6.9 mph E11.1 kmh E 9.2 mph14.8 kmh 29.62 in1003.0 mb - 0.02 in0.5 mm 0.08 in2.0 mm
06:55 PM 48.5°F9.2°C 41.3°F5.2°C 76% 8.1 mph E13.0 kmh E 12.7 mph20.4 kmh 29.62 in1003.0 mb - 0.01 in0.3 mm 0.09 in2.3 mm
07:00 PM 48.6°F9.2°C 41.4°F5.2°C 76% 9.2 mph E14.8 kmh E 11.5 mph18.5 kmh 29.62 in1003.0 mb - 0.02 in0.5 mm 0.11 in2.8 mm
07:05 PM 48.7°F9.3°C 41.8°F5.4°C 77% 5.8 mph E9.3 kmh E 9.2 mph14.8 kmh 29.62 in1003.0 mb - 0.02 in0.5 mm 0.12 in3.0 mm
07:10 PM 48.7°F9.3°C 41.8°F5.4°C 77% 6.9 mph E11.1 kmh E 10.4 mph16.7 kmh 29.62 in1003.0 mb - 0.01 in0.3 mm 0.13 in3.3 mm
07:15 PM 48.7°F9.3°C 41.8°F5.4°C 77% 6.9 mph E11.1 kmh E 9.2 mph14.8 kmh 29.62 in1003.0 mb - 0.01 in0.3 mm 0.14 in3.6 mm
07:20 PM 48.6°F9.2°C 41.7°F5.4°C 77% 8.1 mph E13.0 kmh E 11.5 mph18.5 kmh 29.62 in1003.0 mb - 0.01 in0.3 mm 0.15 in3.8 mm
07:25 PM 48.6°F9.2°C 41.7°F5.4°C 77% 5.8 mph E9.3 kmh E 10.4 mph16.7 kmh 29.62 in1003.0 mb - 0.01 in0.3 mm 0.16 in4.1 mm
07:30 PM 48.5°F9.2°C 41.6°F5.3°C 77% 8.1 mph ESE13.0 kmh ESE 11.5 mph18.5 kmh 29.62 in1003.0 mb - 0.01 in0.3 mm 0.17 in4.3 mm
07:35 PM 48.4°F9.1°C 41.5°F5.3°C 77% 9.2 mph E14.8 kmh E 11.5 mph18.5 kmh 29.62 in1003.0 mb - 0.02 in0.5 mm 0.17 in4.3 mm
07:40 PM 48.3°F9.1°C 41.4°F5.2°C 77% 9.2 mph E14.8 kmh E 11.5 mph18.5 kmh 29.61 in1002.7 mb - 0.02 in0.5 mm 0.19 in4.8 mm
07:45 PM 48.3°F9.1°C 41.4°F5.2°C 77% 9.2 mph E14.8 kmh E 11.5 mph18.5 kmh 29.61 in1002.7 mb - 0.01 in0.3 mm 0.19 in4.8 mm
07:50 PM 48.4°F9.1°C 41.5°F5.3°C 77% 9.2 mph E14.8 kmh E 15.0 mph24.1 kmh 29.61 in1002.7 mb - 0.01 in0.3 mm 0.20 in5.1 mm
07:55 PM 48.6°F9.2°C 41.7°F5.4°C 77% 8.1 mph E13.0 kmh E 11.5 mph18.5 kmh 29.61 in1002.7 mb - 0.01 in0.3 mm 0.21 in5.3 mm
08:00 PM 48.5°F9.2°C 41.6°F5.3°C 77% 9.2 mph E14.8 kmh E 11.5 mph18.5 kmh 29.61 in1002.7 mb - 0.01 in0.3 mm 0.22 in5.6 mm
08:05 PM 48.3°F9.1°C 41.4°F5.2°C 77% 9.2 mph E14.8 kmh E 12.7 mph20.4 kmh 29.61 in1002.7 mb - 0.01 in0.3 mm 0.22 in5.6 mm
08:10 PM 48.2°F9.0°C 41.3°F5.2°C 77% 6.9 mph ESE11.1 kmh ESE 12.7 mph20.4 kmh 29.61 in1002.7 mb - 0.00 in0.0 mm 0.22 in5.6 mm
08:15 PM 48.1°F8.9°C 41.2°F5.1°C 77% 8.1 mph E13.0 kmh E 11.5 mph18.5 kmh 29.61 in1002.7 mb - 0.00 in0.0 mm 0.22 in5.6 mm
08:20 PM 48.0°F8.9°C 41.1°F5.1°C 77% 9.2 mph ESE14.8 kmh ESE 13.8 mph22.2 kmh 29.61 in1002.7 mb - 0.00 in0.0 mm 0.22 in5.6 mm
08:25 PM 47.9°F8.8°C 41.0°F5.0°C 77% 9.2 mph E14.8 kmh E 10.4 mph16.7 kmh 29.60 in1002.4 mb - 0.01 in0.3 mm 0.23 in5.8 mm
08:30 PM 47.8°F8.8°C 40.9°F4.9°C 77% 9.2 mph ESE14.8 kmh ESE 11.5 mph18.5 kmh 29.60 in1002.4 mb - 0.00 in0.0 mm 0.23 in5.8 mm
08:35 PM 47.8°F8.8°C 40.9°F4.9°C 77% 8.1 mph ESE13.0 kmh ESE 11.5 mph18.5 kmh 29.60 in1002.4 mb - 0.01 in0.3 mm 0.24 in6.1 mm
08:40 PM 47.7°F8.7°C 40.8°F4.9°C 77% 8.1 mph ESE13.0 kmh ESE 11.5 mph18.5 kmh 29.60 in1002.4 mb - 0.00 in0.0 mm 0.24 in6.1 mm
08:45 PM 47.5°F8.6°C 40.7°F4.8°C 77% 6.9 mph E11.1 kmh E 10.4 mph16.7 kmh 29.60 in1002.4 mb - 0.01 in0.3 mm 0.25 in6.4 mm
08:50 PM 47.4°F8.6°C 40.5°F4.7°C 77% 5.8 mph E9.3 kmh E 12.7 mph20.4 kmh 29.59 in1002.0 mb - 0.01 in0.3 mm 0.25 in6.4 mm
08:55 PM 47.2°F8.4°C 40.4°F4.7°C 77% 9.2 mph E14.8 kmh E 11.5 mph18.5 kmh 29.59 in1002.0 mb - 0.00 in0.0 mm 0.25 in6.4 mm
09:00 PM 47.1°F8.4°C 40.6°F4.8°C 78% 9.2 mph E14.8 kmh E 10.4 mph16.7 kmh 29.59 in1002.0 mb - 0.01 in0.3 mm 0.26 in6.6 mm
09:05 PM 46.9°F8.3°C 40.4°F4.7°C 78% 5.8 mph E9.3 kmh E 10.4 mph16.7 kmh 29.59 in1002.0 mb - 0.00 in0.0 mm 0.26 in6.6 mm
09:10 PM 46.9°F8.3°C 40.4°F4.7°C 78% 8.1 mph E13.0 kmh E 12.7 mph20.4 kmh 29.59 in1002.0 mb - 0.00 in0.0 mm 0.26 in6.6 mm
09:15 PM 46.6°F8.1°C 40.1°F4.5°C 78% 10.4 mph E16.7 kmh E 11.5 mph18.5 kmh 29.59 in1002.0 mb - 0.01 in0.3 mm 0.27 in6.9 mm
09:20 PM 46.4°F8.0°C 39.9°F4.4°C 78% 8.1 mph E13.0 kmh E 11.5 mph18.5 kmh 29.59 in1002.0 mb - 0.00 in0.0 mm 0.27 in6.9 mm
09:25 PM 46.3°F7.9°C 39.8°F4.3°C 78% 9.2 mph E14.8 kmh E 11.5 mph18.5 kmh 29.59 in1002.0 mb - 0.00 in0.0 mm 0.27 in6.9 mm
09:30 PM 46.3°F7.9°C 39.8°F4.3°C 78% 8.1 mph ESE13.0 kmh ESE 13.8 mph22.2 kmh 29.59 in1002.0 mb - 0.00 in0.0 mm 0.27 in6.9 mm
09:35 PM 46.2°F7.9°C 39.7°F4.3°C 78% 9.2 mph E14.8 kmh E 11.5 mph18.5 kmh 29.59 in1002.0 mb - 0.00 in0.0 mm 0.27 in6.9 mm
09:40 PM 46.3°F7.9°C 39.8°F4.3°C 78% 11.5 mph E18.5 kmh E 16.1 mph25.9 kmh 29.59 in1002.0 mb - 0.00 in0.0 mm 0.27 in6.9 mm
09:45 PM 46.3°F7.9°C 39.8°F4.3°C 78% 8.1 mph SE13.0 kmh SE 9.2 mph14.8 kmh 29.59 in1002.0 mb - 0.00 in0.0 mm 0.27 in6.9 mm
09:50 PM 46.3°F7.9°C 39.8°F4.3°C 78% 8.1 mph ESE13.0 kmh ESE 9.2 mph14.8 kmh 29.59 in1002.0 mb - 0.00 in0.0 mm 0.27 in6.9 mm
09:55 PM 46.3°F7.9°C 39.8°F4.3°C 78% 8.1 mph E13.0 kmh E 11.5 mph18.5 kmh 29.59 in1002.0 mb - 0.00 in0.0 mm 0.27 in6.9 mm
10:00 PM 46.2°F7.9°C 39.7°F4.3°C 78% 5.8 mph E9.3 kmh E 10.4 mph16.7 kmh 29.59 in1002.0 mb - 0.00 in0.0 mm 0.27 in6.9 mm
10:05 PM 46.2°F7.9°C 39.7°F4.3°C 78% 10.4 mph ESE16.7 kmh ESE 11.5 mph18.5 kmh 29.58 in1001.7 mb - 0.00 in0.0 mm 0.27 in6.9 mm
10:10 PM 46.1°F7.8°C 39.6°F4.2°C 78% 10.4 mph E16.7 kmh E 13.8 mph22.2 kmh 29.58 in1001.7 mb - 0.00 in0.0 mm 0.27 in6.9 mm
10:15 PM 46.3°F7.9°C 39.8°F4.3°C 78% 6.9 mph ESE11.1 kmh ESE 10.4 mph16.7 kmh 29.58 in1001.7 mb - 0.00 in0.0 mm 0.27 in6.9 mm
10:20 PM 46.4°F8.0°C 39.9°F4.4°C 78% 6.9 mph ESE11.1 kmh ESE 11.5 mph18.5 kmh 29.58 in1001.7 mb - 0.01 in0.3 mm 0.27 in6.9 mm
10:25 PM 46.3°F7.9°C 39.8°F4.3°C 78% 8.1 mph ESE13.0 kmh ESE 11.5 mph18.5 kmh 29.57 in1001.4 mb - 0.00 in0.0 mm 0.27 in6.9 mm
10:30 PM 46.3°F7.9°C 39.8°F4.3°C 78% 8.1 mph ESE13.0 kmh ESE 11.5 mph18.5 kmh 29.57 in1001.4 mb - 0.00 in0.0 mm 0.27 in6.9 mm
10:35 PM 46.4°F8.0°C 39.9°F4.4°C 78% 10.4 mph E16.7 kmh E 12.7 mph20.4 kmh 29.58 in1001.7 mb - 0.00 in0.0 mm 0.27 in6.9 mm
10:40 PM 46.4°F8.0°C 39.9°F4.4°C 78% 8.1 mph ESE13.0 kmh ESE 11.5 mph18.5 kmh 29.58 in1001.7 mb - 0.00 in0.0 mm 0.27 in6.9 mm
10:45 PM 46.4°F8.0°C 39.9°F4.4°C 78% 10.4 mph ESE16.7 kmh ESE 13.8 mph22.2 kmh 29.58 in1001.7 mb - 0.00 in0.0 mm 0.27 in6.9 mm
10:50 PM 46.5°F8.1°C 40.0°F4.4°C 78% 8.1 mph ESE13.0 kmh ESE 11.5 mph18.5 kmh 29.57 in1001.4 mb - 0.00 in0.0 mm 0.27 in6.9 mm
10:55 PM 46.5°F8.1°C 40.0°F4.4°C 78% 10.4 mph E16.7 kmh E 16.1 mph25.9 kmh 29.57 in1001.4 mb - 0.00 in0.0 mm 0.27 in6.9 mm
11:00 PM 46.6°F8.1°C 40.1°F4.5°C 78% 8.1 mph ESE13.0 kmh ESE 11.5 mph18.5 kmh 29.57 in1001.4 mb - 0.00 in0.0 mm 0.35 in8.9 mm
11:05 PM 46.7°F8.2°C 40.2°F4.6°C 78% 8.1 mph E13.0 kmh E 11.5 mph18.5 kmh 29.57 in1001.4 mb - 0.00 in0.0 mm 0.35 in8.9 mm
11:10 PM 46.8°F8.2°C 40.3°F4.6°C 78% 9.2 mph ESE14.8 kmh ESE 11.5 mph18.5 kmh 29.57 in1001.4 mb - 0.00 in0.0 mm 0.35 in8.9 mm
11:15 PM 46.8°F8.2°C 40.3°F4.6°C 78% 9.2 mph ESE14.8 kmh ESE 11.5 mph18.5 kmh 29.58 in1001.7 mb - 0.00 in0.0 mm 0.35 in8.9 mm
11:20 PM 46.8°F8.2°C 40.3°F4.6°C 78% 8.1 mph ESE13.0 kmh ESE 11.5 mph18.5 kmh 29.58 in1001.7 mb - 0.00 in0.0 mm 0.35 in8.9 mm
11:25 PM 46.6°F8.1°C 39.8°F4.3°C 77% 9.2 mph ESE14.8 kmh ESE 11.5 mph18.5 kmh 29.58 in1001.7 mb - 0.00 in0.0 mm 0.35 in8.9 mm
11:30 PM 46.7°F8.2°C 40.2°F4.6°C 78% 6.9 mph ESE11.1 kmh ESE 11.5 mph18.5 kmh 29.57 in1001.4 mb - 0.00 in0.0 mm 0.35 in8.9 mm
11:35 PM 46.7°F8.2°C 40.2°F4.6°C 78% 8.1 mph E13.0 kmh E 11.5 mph18.5 kmh 29.57 in1001.4 mb - 0.00 in0.0 mm 0.35 in8.9 mm
11:40 PM 46.8°F8.2°C 40.3°F4.6°C 78% 8.1 mph ESE13.0 kmh ESE 10.4 mph16.7 kmh 29.58 in1001.7 mb - 0.00 in0.0 mm 0.35 in8.9 mm
11:45 PM 46.7°F8.2°C 40.2°F4.6°C 78% 6.9 mph ESE11.1 kmh ESE 10.4 mph16.7 kmh 29.57 in1001.4 mb - 0.00 in0.0 mm 0.35 in8.9 mm
11:50 PM 46.6°F8.1°C 40.1°F4.5°C 78% 9.2 mph E14.8 kmh E 15.0 mph24.1 kmh 29.57 in1001.4 mb - 0.00 in0.0 mm 0.35 in8.9 mm
11:55 PM 46.6°F8.1°C 40.1°F4.5°C 78% 5.8 mph E9.3 kmh E 10.4 mph16.7 kmh 29.57 in1001.4 mb - 0.00 in0.0 mm 0.35 in8.9 mm